createdAt,value
2019-02-25T00:01:16.660Z,30.30
2019-02-25T00:03:46.338Z,29.90
2019-02-25T00:06:15.879Z,29.70
2019-02-25T00:08:45.446Z,30.30
2019-02-25T00:11:15.042Z,30.13
2019-02-25T00:13:44.682Z,30.80
2019-02-25T00:16:14.246Z,29.90
2019-02-25T00:18:43.835Z,30.77
2019-02-25T00:21:14.646Z,30.97
2019-02-25T00:23:44.201Z,31.37
2019-02-25T00:26:13.810Z,29.50
2019-02-25T00:28:43.362Z,30.50
2019-02-25T00:31:13.287Z,30.50
2019-02-25T00:33:43.194Z,30.30
2019-02-25T00:36:13.119Z,30.97
2019-02-25T00:38:42.677Z,31.10
2019-02-25T00:41:12.257Z,31.27
2019-02-25T00:43:41.813Z,29.80
2019-02-25T00:46:11.458Z,30.50
2019-02-25T00:48:41.369Z,31.70
2019-02-25T00:51:11.920Z,30.30
2019-02-25T00:53:41.802Z,29.20
2019-02-25T00:56:11.699Z,30.80
2019-02-25T00:58:41.252Z,29.60
2019-02-25T01:01:10.791Z,30.47
2019-02-25T01:03:40.362Z,30.23
2019-02-25T01:06:10.921Z,31.13
2019-02-25T01:08:52.727Z,30.47
2019-02-25T01:11:22.275Z,31.20
2019-02-25T01:13:52.164Z,29.40
2019-02-25T01:16:21.782Z,29.07
2019-02-25T01:18:51.319Z,30.13
2019-02-25T01:21:23.134Z,30.93
2019-02-25T01:23:53.056Z,30.77
2019-02-25T01:26:22.979Z,29.80
2019-02-25T01:28:52.564Z,29.97
2019-02-25T01:31:22.129Z,30.40
2019-02-25T01:33:51.667Z,30.40
2019-02-25T01:36:21.539Z,29.93
2019-02-25T01:38:51.079Z,30.50
2019-02-25T01:41:20.781Z,30.33
2019-02-25T01:43:50.360Z,30.93
2019-02-25T01:46:20.242Z,31.10
2019-02-25T01:48:50.243Z,30.93
2019-02-25T01:51:21.963Z,29.87
2019-02-25T01:53:51.010Z,30.60
2019-02-25T01:56:20.909Z,29.27
2019-02-25T01:58:50.464Z,30.40
2019-02-25T02:01:20.025Z,30.60
2019-02-25T02:03:49.620Z,30.17
2019-02-25T02:06:20.612Z,30.50
2019-02-25T02:08:50.502Z,29.53
2019-02-25T02:11:20.207Z,30.10
2019-02-25T02:13:50.117Z,30.67
2019-02-25T02:16:19.694Z,30.70
2019-02-25T02:18:49.261Z,30.03
2019-02-25T02:21:19.028Z,29.77
2019-02-25T02:23:49.386Z,29.27
2019-02-25T02:26:21.002Z,29.33
2019-02-25T02:28:50.280Z,30.17
2019-02-25T02:31:19.831Z,29.70
2019-02-25T02:33:49.727Z,29.63
2019-02-25T02:36:19.566Z,30.20
2019-02-25T02:38:49.129Z,29.33
2019-02-25T02:41:19.073Z,29.60
2019-02-25T02:43:48.626Z,28.90
2019-02-25T02:46:27.376Z,29.30
2019-02-25T02:49:00.628Z,29.40
2019-02-25T02:51:30.457Z,28.17
2019-02-25T02:54:00.013Z,30.57
2019-02-25T02:56:29.920Z,30.13
2019-02-25T02:58:59.819Z,29.07
2019-02-25T03:01:29.373Z,28.93
2019-02-25T03:03:58.932Z,28.60
2019-02-25T03:06:28.507Z,28.00
2019-02-25T03:08:58.054Z,28.57
2019-02-25T03:11:27.974Z,28.00
2019-02-25T03:13:58.574Z,28.37
2019-02-25T03:16:28.131Z,28.03
2019-02-25T03:18:57.694Z,28.27
2019-02-25T03:21:27.280Z,27.53
2019-02-25T03:23:58.465Z,27.90
2019-02-25T03:26:28.389Z,26.97
2019-02-25T03:28:57.943Z,26.97
2019-02-25T03:31:27.498Z,26.93
2019-02-25T03:33:57.410Z,27.90
2019-02-25T03:36:26.944Z,27.10
2019-02-25T03:38:56.518Z,27.53
2019-02-25T03:41:26.083Z,27.27
2019-02-25T03:43:55.641Z,28.00
2019-02-25T03:46:25.548Z,29.10
2019-02-25T03:48:55.459Z,28.03
2019-02-25T03:51:25.378Z,26.90
2019-02-25T03:53:55.943Z,27.17
2019-02-25T03:56:26.007Z,27.43
2019-02-25T03:58:55.571Z,27.40
2019-02-25T04:01:25.140Z,28.10
2019-02-25T04:03:55.039Z,27.67
2019-02-25T04:06:24.961Z,27.77
2019-02-25T04:08:54.863Z,27.80
2019-02-25T04:11:24.444Z,27.30
2019-02-25T04:13:54.309Z,26.50
2019-02-25T04:16:36.747Z,26.50
2019-02-25T04:19:06.573Z,27.03
2019-02-25T04:21:36.516Z,27.23
2019-02-25T04:24:06.172Z,26.63
2019-02-25T04:26:35.650Z,26.33
2019-02-25T04:29:05.544Z,27.13
2019-02-25T04:31:35.469Z,26.23
2019-02-25T04:34:05.022Z,26.20
2019-02-25T04:36:34.556Z,26.90
2019-02-25T04:39:05.181Z,26.33
2019-02-25T04:41:35.135Z,26.10
2019-02-25T04:44:04.679Z,25.77
2019-02-25T04:46:34.653Z,25.33
2019-02-25T04:49:04.192Z,25.00
2019-02-25T04:51:34.056Z,25.90
2019-02-25T04:54:03.643Z,25.93
2019-02-25T04:56:33.187Z,24.07
2019-02-25T04:59:02.877Z,24.67
2019-02-25T05:01:32.669Z,25.17
2019-02-25T05:04:02.213Z,23.03
2019-02-25T05:06:31.802Z,23.63
2019-02-25T05:09:01.392Z,24.77
2019-02-25T05:11:33.286Z,23.90
2019-02-25T05:14:02.879Z,23.83
2019-02-25T05:16:32.793Z,24.20
2019-02-25T05:19:02.544Z,23.20
2019-02-25T05:21:32.148Z,22.70
2019-02-25T05:24:01.699Z,23.17
2019-02-25T05:26:32.096Z,23.60
2019-02-25T05:29:01.687Z,22.50
2019-02-25T05:31:31.271Z,23.23
2019-02-25T05:34:00.830Z,23.23
2019-02-25T05:36:30.409Z,22.43
2019-02-25T05:38:59.942Z,22.43
2019-02-25T05:41:29.499Z,22.17
2019-02-25T05:43:59.095Z,22.70
2019-02-25T05:46:28.664Z,21.80
2019-02-25T05:48:58.240Z,21.93
2019-02-25T05:51:27.824Z,22.30
2019-02-25T05:53:57.376Z,22.30
2019-02-25T05:56:26.945Z,22.53
2019-02-25T05:58:56.527Z,22.03
2019-02-25T06:01:26.440Z,22.00
2019-02-25T06:03:56.069Z,22.27
2019-02-25T06:06:25.701Z,23.00
2019-02-25T06:08:55.266Z,22.57
2019-02-25T06:11:25.825Z,23.03
2019-02-25T06:13:55.390Z,23.53
2019-02-25T06:16:24.953Z,23.77
2019-02-25T06:18:54.519Z,23.10
2019-02-25T06:21:24.111Z,24.33
2019-02-25T06:23:53.657Z,22.90
2019-02-25T06:26:23.207Z,23.43
2019-02-25T06:28:52.801Z,22.90
2019-02-25T06:31:22.344Z,23.90
2019-02-25T06:33:51.957Z,22.90
2019-02-25T06:36:21.552Z,22.70
2019-02-25T06:38:51.097Z,22.37
2019-02-25T06:41:20.643Z,21.87
2019-02-25T06:43:50.234Z,22.47
2019-02-25T06:46:19.783Z,22.70
2019-02-25T06:48:49.320Z,22.13
2019-02-25T06:51:18.960Z,21.43
2019-02-25T06:53:48.801Z,21.33
2019-02-25T06:56:18.348Z,22.23
2019-02-25T06:58:47.912Z,21.20
2019-02-25T07:01:17.458Z,21.47
2019-02-25T07:03:48.560Z,20.83
2019-02-25T07:06:19.753Z,21.83
2019-02-25T07:08:56.690Z,20.13
2019-02-25T07:11:27.844Z,19.70
2019-02-25T07:14:07.926Z,20.77
2019-02-25T07:16:57.208Z,20.20
2019-02-25T07:19:36.795Z,20.33
2019-02-25T07:22:09.171Z,19.80
2019-02-25T07:24:42.853Z,19.37
2019-02-25T07:27:16.693Z,20.07
2019-02-25T07:29:47.942Z,18.97
2019-02-25T07:32:35.663Z,18.60
2019-02-25T07:35:08.181Z,19.70
2019-02-25T07:37:42.299Z,18.37
2019-02-25T07:40:20.378Z,19.20
2019-02-25T07:42:57.312Z,18.80
2019-02-25T07:45:40.249Z,18.47
2019-02-25T07:48:20.580Z,19.00
2019-02-25T07:50:51.694Z,18.97
2019-02-25T07:53:23.782Z,18.50
2019-02-25T07:56:07.167Z,17.70
2019-02-25T07:58:38.330Z,17.77
2019-02-25T08:01:12.507Z,17.80
2019-02-25T08:03:49.487Z,18.47
2019-02-25T08:06:37.306Z,18.43
2019-02-25T08:09:25.907Z,17.63
2019-02-25T08:11:57.077Z,17.97
2019-02-25T08:14:40.417Z,16.60
2019-02-25T08:17:11.544Z,17.43
2019-02-25T08:19:58.975Z,16.90
2019-02-25T08:22:30.089Z,17.00
2019-02-25T08:25:13.439Z,16.50
2019-02-25T08:28:01.094Z,16.30
2019-02-25T08:30:50.614Z,15.60
2019-02-25T08:33:37.047Z,16.60
2019-02-25T08:36:34.232Z,15.57
2019-02-25T08:39:15.605Z,15.20
2019-02-25T08:42:02.909Z,16.23
2019-02-25T08:44:49.406Z,15.53
2019-02-25T08:47:23.060Z,16.57
2019-02-25T08:49:54.296Z,17.00
2019-02-25T08:52:23.891Z,16.63
2019-02-25T08:54:53.466Z,16.67
2019-02-25T08:57:24.105Z,16.13
2019-02-25T08:59:53.730Z,16.63
2019-02-25T09:02:23.257Z,16.20
2019-02-25T09:04:52.844Z,16.53
2019-02-25T09:07:22.449Z,16.07
2019-02-25T09:09:51.994Z,16.57
2019-02-25T09:12:21.536Z,16.67
2019-02-25T09:14:51.279Z,15.73
2019-02-25T09:17:20.831Z,16.73
2019-02-25T09:19:50.386Z,16.17
2019-02-25T09:22:20.172Z,17.83
2019-02-25T09:24:49.746Z,17.47
2019-02-25T09:27:19.305Z,17.07
2019-02-25T09:29:48.897Z,17.03
2019-02-25T09:32:19.063Z,18.20
2019-02-25T09:34:48.715Z,17.73
2019-02-25T09:37:18.319Z,17.63
2019-02-25T09:39:47.834Z,17.47
2019-02-25T09:42:17.385Z,17.07
2019-02-25T09:44:47.861Z,17.33
2019-02-25T09:47:17.484Z,16.97
2019-02-25T09:49:47.044Z,17.43
2019-02-25T09:52:16.929Z,17.07
2019-02-25T09:54:46.487Z,17.20
2019-02-25T09:57:16.032Z,17.13
2019-02-25T09:59:45.603Z,17.00
2019-02-25T10:02:15.143Z,16.33
2019-02-25T10:04:44.702Z,16.17
2019-02-25T10:07:14.297Z,16.37
2019-02-25T10:09:43.887Z,15.83
2019-02-25T10:12:13.540Z,16.00
2019-02-25T10:14:43.115Z,16.13
2019-02-25T10:17:12.658Z,16.03
2019-02-25T10:19:42.638Z,14.20
2019-02-25T10:22:12.212Z,14.43
2019-02-25T10:24:41.762Z,15.28
2019-02-25T10:27:11.323Z,14.75
2019-02-25T10:29:40.925Z,14.98
2019-02-25T10:32:10.471Z,14.80
2019-02-25T10:34:40.035Z,14.33
2019-02-25T10:37:11.037Z,15.32
2019-02-25T10:39:41.283Z,14.87
2019-02-25T10:42:12.001Z,14.95
2019-02-25T10:44:41.543Z,15.23
2019-02-25T10:47:13.130Z,15.07
2019-02-25T10:49:42.351Z,14.70
2019-02-25T10:52:12.873Z,15.97
2019-02-25T10:54:43.191Z,14.67
2019-02-25T10:57:12.739Z,14.90
2019-02-25T10:59:42.322Z,14.10
2019-02-25T11:02:13.682Z,15.10
2019-02-25T11:04:43.074Z,14.20
2019-02-25T11:07:12.623Z,15.17
2019-02-25T11:09:48.163Z,14.50
2019-02-25T11:12:17.635Z,16.40
2019-02-25T11:14:47.210Z,15.87
2019-02-25T11:17:18.345Z,16.13
2019-02-25T11:19:47.979Z,17.30
2019-02-25T11:22:17.628Z,18.73
2019-02-25T11:24:49.311Z,18.50
2019-02-25T11:27:18.414Z,18.93
2019-02-25T11:29:48.476Z,18.70
2019-02-25T11:32:19.847Z,18.30
2019-02-25T11:34:51.228Z,18.23
2019-02-25T11:37:22.485Z,18.03
2019-02-25T11:39:52.697Z,18.47
2019-02-25T11:42:23.205Z,17.77
2019-02-25T11:44:54.260Z,18.13
2019-02-25T11:47:23.955Z,17.07
2019-02-25T11:49:53.531Z,15.67
2019-02-25T11:52:23.141Z,15.70
2019-02-25T11:54:52.736Z,16.43
2019-02-25T11:57:22.274Z,16.90
2019-02-25T11:59:51.831Z,15.93
2019-02-25T12:02:25.446Z,15.63
2019-02-25T12:04:53.047Z,17.27
2019-02-25T12:07:22.959Z,18.00
2019-02-25T12:09:52.527Z,18.73
2019-02-25T12:12:22.096Z,18.03
2019-02-25T12:14:51.660Z,17.33
2019-02-25T12:17:21.214Z,16.57
2019-02-25T12:19:50.793Z,16.13
2019-02-25T12:22:20.401Z,15.60
2019-02-25T12:24:50.068Z,16.03
2019-02-25T12:27:20.011Z,15.50
2019-02-25T12:29:49.931Z,15.83
2019-02-25T12:32:19.484Z,15.03
2019-02-25T12:34:49.039Z,14.80
2019-02-25T12:37:18.607Z,14.10
2019-02-25T12:39:48.151Z,14.47
2019-02-25T12:42:17.707Z,13.30
2019-02-25T12:44:47.316Z,13.47
2019-02-25T12:47:16.868Z,13.33
2019-02-25T12:49:46.436Z,12.57
2019-02-25T12:52:16.025Z,12.60
2019-02-25T12:54:45.907Z,12.93
2019-02-25T12:57:15.505Z,12.90
2019-02-25T12:59:46.248Z,13.33
2019-02-25T13:02:15.812Z,13.10
2019-02-25T13:04:45.380Z,12.60
2019-02-25T13:07:14.996Z,13.00
2019-02-25T13:09:44.627Z,13.10
2019-02-25T13:12:14.182Z,12.80
2019-02-25T13:14:43.769Z,13.23
2019-02-25T13:17:13.321Z,11.83
2019-02-25T13:19:42.890Z,12.47
2019-02-25T13:22:12.464Z,12.83
2019-02-25T13:24:42.041Z,12.43
2019-02-25T13:27:13.456Z,13.23
2019-02-25T13:29:43.892Z,12.57
2019-02-25T13:32:13.441Z,12.30
2019-02-25T13:34:42.995Z,12.70
2019-02-25T13:37:12.602Z,11.73
2019-02-25T13:39:42.275Z,11.93
2019-02-25T13:42:11.833Z,12.30
2019-02-25T13:44:41.424Z,11.97
2019-02-25T13:47:10.968Z,12.00
2019-02-25T13:49:40.539Z,12.10
2019-02-25T13:52:10.548Z,11.27
2019-02-25T13:54:40.212Z,11.27
2019-02-25T13:57:11.453Z,11.60
2019-02-25T13:59:40.997Z,12.03
2019-02-25T14:02:10.556Z,12.97
2019-02-25T14:04:40.168Z,12.17
2019-02-25T14:07:11.016Z,11.77
2019-02-25T14:09:41.159Z,12.47
2019-02-25T14:12:11.120Z,13.27
2019-02-25T14:14:40.730Z,12.80
2019-02-25T14:17:10.342Z,12.80
2019-02-25T14:19:39.840Z,12.50
2019-02-25T14:22:09.375Z,13.03
2019-02-25T14:24:40.467Z,11.97
2019-02-25T14:27:11.756Z,12.47
2019-02-25T14:29:41.464Z,13.40
2019-02-25T14:32:11.839Z,13.60
2019-02-25T14:34:41.448Z,13.20
2019-02-25T14:37:11.166Z,14.20
2019-02-25T14:39:41.354Z,15.33
2019-02-25T14:42:13.119Z,14.23
2019-02-25T14:44:43.909Z,13.23
2019-02-25T14:47:20.626Z,14.50
2019-02-25T14:49:45.532Z,14.33
2019-02-25T14:52:15.558Z,14.53
2019-02-25T14:54:45.923Z,14.13
2019-02-25T14:57:15.580Z,13.97
2019-02-25T14:59:45.126Z,15.40
2019-02-25T15:02:14.818Z,15.97
2019-02-25T15:04:44.355Z,15.43
2019-02-25T15:07:15.216Z,15.70
2019-02-25T15:09:46.156Z,14.63
2019-02-25T15:12:15.702Z,14.67
2019-02-25T15:14:45.262Z,14.03
2019-02-25T15:17:14.962Z,14.10
2019-02-25T15:19:44.615Z,14.67
2019-02-25T15:22:14.213Z,13.97
2019-02-25T15:24:44.413Z,13.57
2019-02-25T15:27:15.055Z,13.43
2019-02-25T15:29:46.892Z,13.70
2019-02-25T15:32:16.850Z,12.87
2019-02-25T15:34:48.456Z,12.87
2019-02-25T15:37:17.731Z,13.00
2019-02-25T15:39:47.325Z,12.10
2019-02-25T15:42:18.152Z,13.47
2019-02-25T15:44:49.314Z,13.30
2019-02-25T15:47:18.954Z,12.17
2019-02-25T15:49:48.790Z,13.20
2019-02-25T15:52:18.796Z,12.60
2019-02-25T15:54:49.856Z,13.13
2019-02-25T15:57:20.639Z,12.80
2019-02-25T15:59:50.602Z,12.80
2019-02-25T16:02:20.233Z,12.57
2019-02-25T16:04:49.910Z,12.20
2019-02-25T16:07:19.465Z,12.30
2019-02-25T16:09:49.149Z,14.40
2019-02-25T16:12:18.692Z,14.93
2019-02-25T16:14:53.140Z,14.60
2019-02-25T16:17:24.398Z,14.97
2019-02-25T16:19:54.186Z,14.90
2019-02-25T16:22:25.740Z,14.23
2019-02-25T16:24:55.274Z,15.43
2019-02-25T16:27:25.249Z,14.93
2019-02-25T16:29:56.469Z,14.90
2019-02-25T16:32:27.182Z,14.90
2019-02-25T16:34:58.537Z,14.80
2019-02-25T16:37:29.127Z,14.20
2019-02-25T16:40:01.137Z,13.80
2019-02-25T16:42:32.409Z,15.30
2019-02-25T16:45:04.155Z,16.03
2019-02-25T16:47:35.592Z,17.27
2019-02-25T16:50:11.948Z,17.80
2019-02-25T16:52:44.999Z,17.20
2019-02-25T16:55:17.633Z,17.37
2019-02-25T16:57:47.791Z,16.93
2019-02-25T17:00:19.507Z,16.87
2019-02-25T17:02:49.044Z,16.60
2019-02-25T17:05:18.689Z,17.83
2019-02-25T17:07:49.062Z,16.43
2019-02-25T17:10:25.972Z,15.70
2019-02-25T17:12:54.318Z,15.60
2019-02-25T17:15:26.316Z,16.00
2019-02-25T17:17:58.396Z,16.73
2019-02-25T17:20:28.188Z,16.90
2019-02-25T17:22:59.677Z,16.67
2019-02-25T17:25:31.363Z,15.83
2019-02-25T17:28:00.222Z,17.33
2019-02-25T17:30:29.795Z,17.67
2019-02-25T17:33:01.095Z,17.93
2019-02-25T17:35:31.933Z,17.93
2019-02-25T17:38:03.587Z,18.03
2019-02-25T17:40:32.780Z,17.40
2019-02-25T17:43:02.847Z,18.37
2019-02-25T17:45:35.017Z,17.87
2019-02-25T17:48:08.468Z,18.40
2019-02-25T17:50:39.176Z,18.73
2019-02-25T17:53:09.746Z,19.90
2019-02-25T17:55:39.626Z,20.97
2019-02-25T17:58:09.595Z,21.40
2019-02-25T18:00:42.335Z,23.50
2019-02-25T18:03:12.265Z,24.37
2019-02-25T18:06:03.431Z,24.20
2019-02-25T18:08:34.239Z,33.97
2019-02-25T18:11:04.905Z,27.97
2019-02-25T18:13:35.221Z,27.77
2019-02-25T18:16:04.928Z,27.47
2019-02-25T18:18:36.669Z,27.40
2019-02-25T18:21:06.350Z,25.70
2019-02-25T18:23:37.095Z,25.97
2019-02-25T18:26:06.767Z,24.67
2019-02-25T18:28:37.443Z,25.47
2019-02-25T18:31:10.845Z,25.43
2019-02-25T18:33:38.679Z,24.03
2019-02-25T18:36:11.247Z,23.27
2019-02-25T18:38:40.620Z,24.13
2019-02-25T18:41:10.288Z,24.10
2019-02-25T18:43:42.842Z,24.43
2019-02-25T18:46:12.133Z,25.40
2019-02-25T18:48:44.564Z,25.30
2019-02-25T18:51:14.500Z,25.07
2019-02-25T18:53:44.767Z,25.83
2019-02-25T18:56:16.301Z,26.17
2019-02-25T18:58:45.724Z,27.03
2019-02-25T19:01:17.566Z,26.20
2019-02-25T19:03:48.308Z,26.97
2019-02-25T19:06:19.435Z,26.63
2019-02-25T19:08:51.633Z,27.47
2019-02-25T19:11:23.584Z,26.17
2019-02-25T19:13:54.373Z,28.20
2019-02-25T19:16:24.854Z,27.77
2019-02-25T19:18:54.399Z,27.80
2019-02-25T19:21:25.540Z,27.53
2019-02-25T19:23:55.183Z,28.37
2019-02-25T19:26:24.719Z,30.07
2019-02-25T19:28:54.712Z,28.73
2019-02-25T19:31:26.049Z,28.87
2019-02-25T19:33:56.078Z,30.30
2019-02-25T19:36:27.675Z,29.80
2019-02-25T19:38:56.890Z,29.23
2019-02-25T19:41:29.731Z,29.70
2019-02-25T19:43:59.487Z,30.73
2019-02-25T19:46:30.387Z,29.63
2019-02-25T19:49:00.064Z,31.50
2019-02-25T19:51:29.851Z,30.67
2019-02-25T19:53:59.799Z,30.27
2019-02-25T19:56:31.689Z,30.53
2019-02-25T19:59:03.241Z,31.43
2019-02-25T20:01:32.414Z,30.60
2019-02-25T20:04:04.380Z,31.13
2019-02-25T20:06:33.520Z,32.20
2019-02-25T20:09:16.451Z,32.13
2019-02-25T20:11:46.007Z,34.50
2019-02-25T20:14:17.167Z,33.27
2019-02-25T20:16:47.084Z,34.70
2019-02-25T20:19:16.892Z,34.33
2019-02-25T20:21:48.121Z,34.87
2019-02-25T20:24:19.090Z,36.07
2019-02-25T20:26:52.637Z,34.97
2019-02-25T20:29:20.176Z,35.23
2019-02-25T20:31:51.501Z,34.57
2019-02-25T20:34:23.006Z,35.87
2019-02-25T20:37:12.851Z,34.97
2019-02-25T20:39:42.995Z,36.00
2019-02-25T20:42:17.509Z,34.40
2019-02-25T20:44:46.711Z,36.60
2019-02-25T20:47:16.244Z,35.17
2019-02-25T20:49:49.251Z,35.03
2019-02-25T20:52:18.521Z,35.27
2019-02-25T20:54:49.610Z,34.37
2019-02-25T20:57:19.654Z,34.33
2019-02-25T20:59:51.073Z,35.70
2019-02-25T21:02:21.686Z,35.67
2019-02-25T21:04:52.593Z,35.70
2019-02-25T21:07:22.209Z,36.07
2019-02-25T21:09:51.772Z,35.00
2019-02-25T21:12:21.346Z,35.03
2019-02-25T21:14:51.012Z,35.73
2019-02-25T21:17:20.621Z,36.20
2019-02-25T21:19:50.154Z,35.63
2019-02-25T21:22:23.169Z,36.00
2019-02-25T21:24:53.992Z,35.10
2019-02-25T21:27:26.063Z,35.63
2019-02-25T21:29:56.550Z,34.97
2019-02-25T21:32:26.212Z,35.17
2019-02-25T21:34:57.571Z,35.77
2019-02-25T21:37:27.716Z,35.80
2019-02-25T21:39:58.658Z,35.67
2019-02-25T21:42:29.259Z,36.37
2019-02-25T21:45:00.118Z,34.77
2019-02-25T21:47:30.914Z,35.30
2019-02-25T21:50:03.870Z,36.13
2019-02-25T21:52:35.040Z,36.03
2019-02-25T21:55:05.317Z,35.67
2019-02-25T21:57:37.541Z,36.10
2019-02-25T22:00:09.904Z,36.10
2019-02-25T22:02:41.872Z,35.40
2019-02-25T22:05:14.281Z,36.40
2019-02-25T22:07:44.660Z,35.53
2019-02-25T22:10:15.414Z,37.47
2019-02-25T22:12:44.991Z,37.87
2019-02-25T22:15:18.017Z,35.10
2019-02-25T22:17:50.129Z,36.53
2019-02-25T22:20:21.709Z,35.90
2019-02-25T22:22:54.450Z,36.90
2019-02-25T22:25:22.314Z,36.43
2019-02-25T22:27:51.890Z,35.30
2019-02-25T22:30:21.437Z,36.27
2019-02-25T22:32:51.106Z,37.70
2019-02-25T22:35:20.734Z,36.47
2019-02-25T22:37:53.265Z,37.50
2019-02-25T22:40:23.250Z,38.07
2019-02-25T22:42:54.476Z,37.33
2019-02-25T22:45:24.038Z,35.63
2019-02-25T22:47:53.582Z,36.80
2019-02-25T22:50:23.158Z,38.03
2019-02-25T22:52:58.281Z,35.77
2019-02-25T22:55:24.230Z,35.47
2019-02-25T22:57:54.204Z,37.17
2019-02-25T23:00:45.649Z,36.70
2019-02-25T23:03:18.473Z,36.17
2019-02-25T23:05:48.704Z,35.93
2019-02-25T23:08:20.875Z,37.03
2019-02-25T23:10:51.802Z,36.17
2019-02-25T23:13:22.659Z,35.40
2019-02-25T23:15:53.482Z,35.10
2019-02-25T23:18:25.831Z,35.67
2019-02-25T23:20:57.010Z,36.80
2019-02-25T23:23:26.414Z,35.60
2019-02-25T23:25:58.412Z,35.23
2019-02-25T23:28:28.663Z,36.00
2019-02-25T23:31:00.053Z,36.07
2019-02-25T23:33:30.696Z,35.73
2019-02-25T23:36:00.242Z,34.93
2019-02-25T23:38:29.851Z,36.03
2019-02-25T23:41:01.210Z,35.10
2019-02-25T23:43:33.830Z,34.30
2019-02-25T23:46:02.368Z,34.37
2019-02-25T23:48:35.687Z,34.20
2019-02-25T23:51:05.214Z,34.23
2019-02-25T23:53:35.254Z,34.50
2019-02-25T23:56:04.829Z,33.97
2019-02-25T23:58:38.290Z,32.57
